sensor_id;sensor_type;location;lat;lon;timestamp;pressure;altitude;pressure_sealevel;temperature;humidity
21086;BME280;34247;50.064;19.970;2022-12-07T00:00:24;98828.44;;;5.01;99.05
21086;BME280;34247;50.064;19.970;2022-12-07T00:01:41;98828.59;;;4.97;98.96
21086;BME280;34247;50.064;19.970;2022-12-07T00:02:44;98824.44;;;4.93;98.66
21086;BME280;34247;50.064;19.970;2022-12-07T00:03:53;98826.06;;;4.96;98.71
21086;BME280;34247;50.064;19.970;2022-12-07T00:04:57;98829.63;;;4.95;99.18
21086;BME280;34247;50.064;19.970;2022-12-07T00:06:05;98828.78;;;4.94;99.04
21086;BME280;34247;50.064;19.970;2022-12-07T00:07:09;98822.28;;;4.84;98.88
21086;BME280;34247;50.064;19.970;2022-12-07T00:08:16;98825.31;;;4.77;99.60
21086;BME280;34247;50.064;19.970;2022-12-07T00:09:20;98823.38;;;4.80;99.54
21086;BME280;34247;50.064;19.970;2022-12-07T00:10:23;98824.31;;;4.79;99.50
21086;BME280;34247;50.064;19.970;2022-12-07T00:11:27;98821.75;;;4.78;99.49
21086;BME280;34247;50.064;19.970;2022-12-07T00:12:30;98825.00;;;4.83;99.45
21086;BME280;34247;50.064;19.970;2022-12-07T00:13:36;98830.25;;;4.83;99.56
21086;BME280;34247;50.064;19.970;2022-12-07T00:14:40;98831.09;;;4.83;99.71
21086;BME280;34247;50.064;19.970;2022-12-07T00:15:43;98825.69;;;4.86;99.83
21086;BME280;34247;50.064;19.970;2022-12-07T00:16:50;98822.13;;;4.87;99.81
21086;BME280;34247;50.064;19.970;2022-12-07T00:17:54;98825.69;;;4.86;99.32
21086;BME280;34247;50.064;19.970;2022-12-07T00:19:02;98831.94;;;4.84;99.36
21086;BME280;34247;50.064;19.970;2022-12-07T00:20:09;98825.16;;;4.80;99.73
21086;BME280;34247;50.064;19.970;2022-12-07T00:21:35;98827.16;;;4.75;100.00
21086;BME280;34247;50.064;19.970;2022-12-07T00:22:46;98816.66;;;4.75;99.97
21086;BME280;34247;50.064;19.970;2022-12-07T00:23:55;98819.81;;;4.81;99.61
21086;BME280;34247;50.064;19.970;2022-12-07T00:25:00;98811.84;;;4.83;99.62
21086;BME280;34247;50.064;19.970;2022-12-07T00:26:19;98824.84;;;4.86;99.24
21086;BME280;34247;50.064;19.970;2022-12-07T00:27:27;98826.53;;;4.87;99.59
21086;BME280;34247;50.064;19.970;2022-12-07T00:28:30;98816.69;;;4.90;99.10
21086;BME280;34247;50.064;19.970;2022-12-07T00:29:34;98817.47;;;4.92;99.10
21086;BME280;34247;50.064;19.970;2022-12-07T00:30:40;98820.09;;;4.92;98.71
21086;BME280;34247;50.064;19.970;2022-12-07T00:31:47;98818.66;;;4.87;98.72
21086;BME280;34247;50.064;19.970;2022-12-07T00:32:51;98814.16;;;4.89;98.94
21086;BME280;34247;50.064;19.970;2022-12-07T00:33:56;98818.75;;;4.85;98.85
21086;BME280;34247;50.064;19.970;2022-12-07T00:35:15;98823.91;;;4.87;98.96
21086;BME280;34247;50.064;19.970;2022-12-07T00:36:24;98825.91;;;4.82;98.92
21086;BME280;34247;50.064;19.970;2022-12-07T00:37:30;98821.50;;;4.82;99.08
21086;BME280;34247;50.064;19.970;2022-12-07T00:38:36;98814.72;;;4.78;99.11
21086;BME280;34247;50.064;19.970;2022-12-07T00:39:40;98822.53;;;4.80;99.29
21086;BME280;34247;50.064;19.970;2022-12-07T00:40:58;98827.00;;;4.78;99.18
21086;BME280;34247;50.064;19.970;2022-12-07T00:42:09;98818.25;;;4.77;99.17
21086;BME280;34247;50.064;19.970;2022-12-07T00:43:13;98816.16;;;4.84;99.15
21086;BME280;34247;50.064;19.970;2022-12-07T00:44:17;98821.59;;;4.81;99.29
21086;BME280;34247;50.064;19.970;2022-12-07T00:45:20;98820.88;;;4.77;99.25
21086;BME280;34247;50.064;19.970;2022-12-07T00:46:25;98817.19;;;4.81;99.25
21086;BME280;34247;50.064;19.970;2022-12-07T00:47:29;98829.56;;;4.79;99.14
21086;BME280;34247;50.064;19.970;2022-12-07T00:48:33;98831.41;;;4.77;99.79
21086;BME280;34247;50.064;19.970;2022-12-07T00:49:38;98817.41;;;4.77;99.55
21086;BME280;34247;50.064;19.970;2022-12-07T00:50:42;98815.97;;;4.71;99.71
21086;BME280;34247;50.064;19.970;2022-12-07T00:51:49;98822.22;;;4.68;99.79
21086;BME280;34247;50.064;19.970;2022-12-07T00:52:52;98813.25;;;4.73;99.67
21086;BME280;34247;50.064;19.970;2022-12-07T00:53:57;98810.63;;;4.73;99.76
21086;BME280;34247;50.064;19.970;2022-12-07T00:55:03;98808.22;;;4.68;99.96
21086;BME280;34247;50.064;19.970;2022-12-07T00:56:15;98821.16;;;4.73;99.40
21086;BME280;34247;50.064;19.970;2022-12-07T00:57:19;98817.69;;;4.72;99.53
21086;BME280;34247;50.064;19.970;2022-12-07T00:58:23;98814.78;;;4.77;99.67
21086;BME280;34247;50.064;19.970;2022-12-07T00:59:27;98813.78;;;4.79;99.67
21086;BME280;34247;50.064;19.970;2022-12-07T01:00:31;98808.38;;;4.82;99.39
21086;BME280;34247;50.064;19.970;2022-12-07T01:01:36;98810.84;;;4.85;99.13
21086;BME280;34247;50.064;19.970;2022-12-07T01:02:40;98809.22;;;4.83;99.36
21086;BME280;34247;50.064;19.970;2022-12-07T01:03:44;98812.94;;;4.79;99.32
21086;BME280;34247;50.064;19.970;2022-12-07T01:04:49;98813.19;;;4.74;99.63
21086;BME280;34247;50.064;19.970;2022-12-07T01:05:55;98810.53;;;4.74;99.76
21086;BME280;34247;50.064;19.970;2022-12-07T01:06:59;98814.78;;;4.77;99.57
21086;BME280;34247;50.064;19.970;2022-12-07T01:08:03;98805.06;;;4.79;99.59
21086;BME280;34247;50.064;19.970;2022-12-07T01:09:08;98806.03;;;4.76;99.72
21086;BME280;34247;50.064;19.970;2022-12-07T01:10:13;98805.19;;;4.76;99.65
21086;BME280;34247;50.064;19.970;2022-12-07T01:11:24;98809.38;;;4.80;99.38
21086;BME280;34247;50.064;19.970;2022-12-07T01:12:28;98804.97;;;4.80;99.26
21086;BME280;34247;50.064;19.970;2022-12-07T01:13:34;98804.78;;;4.83;99.28
21086;BME280;34247;50.064;19.970;2022-12-07T01:14:41;98805.50;;;4.87;99.04
21086;BME280;34247;50.064;19.970;2022-12-07T01:15:45;98802.88;;;4.87;98.94
21086;BME280;34247;50.064;19.970;2022-12-07T01:16:49;98799.44;;;4.85;99.18
21086;BME280;34247;50.064;19.970;2022-12-07T01:17:53;98803.81;;;4.86;99.07
21086;BME280;34247;50.064;19.970;2022-12-07T01:18:59;98807.34;;;4.85;99.20
21086;BME280;34247;50.064;19.970;2022-12-07T01:20:04;98799.72;;;4.80;99.85
21086;BME280;34247;50.064;19.970;2022-12-07T01:21:38;98802.25;;;4.82;100.00
21086;BME280;34247;50.064;19.970;2022-12-07T01:22:43;98797.09;;;4.80;100.00
21086;BME280;34247;50.064;19.970;2022-12-07T01:23:47;98793.75;;;4.77;100.00
21086;BME280;34247;50.064;19.970;2022-12-07T01:24:51;98797.31;;;4.76;100.00
21086;BME280;34247;50.064;19.970;2022-12-07T01:26:00;98797.31;;;4.76;100.00
21086;BME280;34247;50.064;19.970;2022-12-07T01:27:04;98798.16;;;4.76;100.00
21086;BME280;34247;50.064;19.970;2022-12-07T01:28:16;98792.66;;;4.81;100.00
21086;BME280;34247;50.064;19.970;2022-12-07T01:29:21;98794.13;;;4.86;100.00
21086;BME280;34247;50.064;19.970;2022-12-07T01:30:27;98794.13;;;4.86;100.00
21086;BME280;34247;50.064;19.970;2022-12-07T01:31:34;98793.59;;;4.80;100.00
21086;BME280;34247;50.064;19.970;2022-12-07T01:32:38;98797.16;;;4.79;100.00
21086;BME280;34247;50.064;19.970;2022-12-07T01:33:48;98791.56;;;4.85;100.00
21086;BME280;34247;50.064;19.970;2022-12-07T01:34:53;98796.81;;;4.85;100.00
21086;BME280;34247;50.064;19.970;2022-12-07T01:36:18;98792.84;;;4.60;100.00
21086;BME280;34247;50.064;19.970;2022-12-07T01:37:23;98796.09;;;4.65;100.00
21086;BME280;34247;50.064;19.970;2022-12-07T01:38:31;98785.50;;;4.67;100.00
21086;BME280;34247;50.064;19.970;2022-12-07T01:39:35;98787.19;;;4.68;100.00
21086;BME280;34247;50.064;19.970;2022-12-07T01:40:53;98798.41;;;4.72;100.00
21086;BME280;34247;50.064;19.970;2022-12-07T01:41:56;98797.56;;;4.71;100.00
21086;BME280;34247;50.064;19.970;2022-12-07T01:43:01;98788.66;;;4.74;100.00
21086;BME280;34247;50.064;19.970;2022-12-07T01:44:31;98793.59;;;4.80;100.00
21086;BME280;34247;50.064;19.970;2022-12-07T01:45:42;98789.09;;;4.82;100.00
21086;BME280;34247;50.064;19.970;2022-12-07T01:46:59;98789.88;;;4.84;100.00
21086;BME280;34247;50.064;19.970;2022-12-07T01:48:26;98790.03;;;4.81;100.00
21086;BME280;34247;50.064;19.970;2022-12-07T01:49:44;98791.06;;;4.78;100.00
21086;BME280;34247;50.064;19.970;2022-12-07T01:51:09;98796.25;;;4.80;100.00
21086;BME280;34247;50.064;19.970;2022-12-07T01:52:20;98786.47;;;4.82;100.00
21086;BME280;34247;50.064;19.970;2022-12-07T01:53:36;98796.06;;;4.83;100.00
21086;BME280;34247;50.064;19.970;2022-12-07T01:54:46;98795.13;;;4.84;100.00
21086;BME280;34247;50.064;19.970;2022-12-07T01:55:53;98793.19;;;4.87;100.00
21086;BME280;34247;50.064;19.970;2022-12-07T01:56:59;98794.28;;;4.83;100.00
21086;BME280;34247;50.064;19.970;2022-12-07T01:58:03;98794.28;;;4.83;100.00
21086;BME280;34247;50.064;19.970;2022-12-07T01:59:10;98788.34;;;4.80;100.00
21086;BME280;34247;50.064;19.970;2022-12-07T02:00:14;98794.47;;;4.80;100.00
21086;BME280;34247;50.064;19.970;2022-12-07T02:01:18;98794.13;;;4.86;100.00
21086;BME280;34247;50.064;19.970;2022-12-07T02:02:38;98789.81;;;4.85;100.00
21086;BME280;34247;50.064;19.970;2022-12-07T02:03:45;98788.69;;;4.89;100.00
21086;BME280;34247;50.064;19.970;2022-12-07T02:04:51;98786.16;;;4.88;100.00
21086;BME280;34247;50.064;19.970;2022-12-07T02:05:57;98785.31;;;4.87;100.00
21086;BME280;34247;50.064;19.970;2022-12-07T02:07:04;98793.13;;;4.89;100.00
21086;BME280;34247;50.064;19.970;2022-12-07T02:08:10;98780.91;;;4.88;100.00
21086;BME280;34247;50.064;19.970;2022-12-07T02:09:15;98784.28;;;4.90;100.00
21086;BME280;34247;50.064;19.970;2022-12-07T02:10:27;98785.22;;;4.89;100.00
21086;BME280;34247;50.064;19.970;2022-12-07T02:11:31;98784.94;;;4.78;100.00
21086;BME280;34247;50.064;19.970;2022-12-07T02:12:34;98789.59;;;4.73;100.00
21086;BME280;34247;50.064;19.970;2022-12-07T02:13:41;98783.31;;;4.75;100.00
21086;BME280;34247;50.064;19.970;2022-12-07T02:14:46;98784.44;;;4.71;100.00
21086;BME280;34247;50.064;19.970;2022-12-07T02:16:38;98778.81;;;4.77;100.00
21086;BME280;34247;50.064;19.970;2022-12-07T02:18:25;98779.16;;;4.71;100.00
21086;BME280;34247;50.064;19.970;2022-12-07T02:25:15;98783.94;;;4.63;100.00
21086;BME280;34247;50.064;19.970;2022-12-07T02:28:56;98786.53;;;4.64;100.00
21086;BME280;34247;50.064;19.970;2022-12-07T02:30:12;98784.97;;;4.60;100.00
21086;BME280;34247;50.064;19.970;2022-12-07T02:31:22;98790.00;;;4.65;100.00
21086;BME280;34247;50.064;19.970;2022-12-07T02:34:12;98782.34;;;4.60;100.00
21086;BME280;34247;50.064;19.970;2022-12-07T02:36:55;98782.34;;;4.60;100.00
21086;BME280;34247;50.064;19.970;2022-12-07T02:39:43;98786.53;;;4.47;100.00
21086;BME280;34247;50.064;19.970;2022-12-07T02:41:18;98789.59;;;4.55;100.00
21086;BME280;34247;50.064;19.970;2022-12-07T02:42:35;98787.78;;;4.57;100.00
21086;BME280;34247;50.064;19.970;2022-12-07T02:43:47;98784.13;;;4.60;100.00
21086;BME280;34247;50.064;19.970;2022-12-07T02:44:54;98780.13;;;4.53;100.00
21086;BME280;34247;50.064;19.970;2022-12-07T02:46:08;98783.81;;;4.49;100.00
21086;BME280;34247;50.064;19.970;2022-12-07T02:47:17;98779.44;;;4.49;100.00
21086;BME280;34247;50.064;19.970;2022-12-07T02:48:24;98786.16;;;4.37;100.00
21086;BME280;34247;50.064;19.970;2022-12-07T02:49:30;98786.25;;;4.36;100.00
21086;BME280;34247;50.064;19.970;2022-12-07T02:50:34;98785.13;;;4.40;100.00
21086;BME280;34247;50.064;19.970;2022-12-07T02:51:45;98790.41;;;4.40;100.00
21086;BME280;34247;50.064;19.970;2022-12-07T02:52:49;98784.28;;;4.39;100.00
21086;BME280;34247;50.064;19.970;2022-12-07T02:53:53;98779.97;;;4.38;100.00
21086;BME280;34247;50.064;19.970;2022-12-07T02:54:58;98778.91;;;4.42;100.00
21086;BME280;34247;50.064;19.970;2022-12-07T02:58:23;98776.84;;;4.48;100.00
21086;BME280;34247;50.064;19.970;2022-12-07T02:59:53;98775.94;;;4.49;100.00
21086;BME280;34247;50.064;19.970;2022-12-07T03:03:00;98770.94;;;4.44;100.00
21086;BME280;34247;50.064;19.970;2022-12-07T03:05:05;98769.25;;;4.43;100.00
21086;BME280;34247;50.064;19.970;2022-12-07T03:06:05;98764.75;;;4.45;100.00
21086;BME280;34247;50.064;19.970;2022-12-07T03:07:57;98769.16;;;4.45;100.00
21086;BME280;34247;50.064;19.970;2022-12-07T03:10:24;98768.38;;;4.42;100.00
21086;BME280;34247;50.064;19.970;2022-12-07T03:11:42;98766.59;;;4.43;100.00
21086;BME280;34247;50.064;19.970;2022-12-07T03:14:29;98767.69;;;4.39;100.00
21086;BME280;34247;50.064;19.970;2022-12-07T03:17:02;98766.66;;;4.41;100.00
21086;BME280;34247;50.064;19.970;2022-12-07T03:18:11;98761.41;;;4.41;100.00
21086;BME280;34247;50.064;19.970;2022-12-07T03:19:20;98761.19;;;4.46;100.00
21086;BME280;34247;50.064;19.970;2022-12-07T03:20:27;98763.72;;;4.48;100.00
21086;BME280;34247;50.064;19.970;2022-12-07T03:21:56;98758.41;;;4.49;100.00
21086;BME280;34247;50.064;19.970;2022-12-07T03:23:00;98761.09;;;4.48;100.00
21086;BME280;34247;50.064;19.970;2022-12-07T03:24:18;98762.88;;;4.47;100.00
21086;BME280;34247;50.064;19.970;2022-12-07T03:25:23;98761.94;;;4.48;100.00
21086;BME280;34247;50.064;19.970;2022-12-07T03:26:49;98767.19;;;4.48;100.00
21086;BME280;34247;50.064;19.970;2022-12-07T03:28:05;98760.03;;;4.52;100.00
21086;BME280;34247;50.064;19.970;2022-12-07T03:29:36;98754.84;;;4.50;100.00
21086;BME280;34247;50.064;19.970;2022-12-07T03:30:56;98756.84;;;4.45;100.00
21086;BME280;34247;50.064;19.970;2022-12-07T03:34:25;98746.16;;;4.48;100.00
21086;BME280;34247;50.064;19.970;2022-12-07T03:35:45;98752.22;;;4.50;100.00
21086;BME280;34247;50.064;19.970;2022-12-07T03:37:16;98749.59;;;4.50;100.00
21086;BME280;34247;50.064;19.970;2022-12-07T03:39:00;98750.44;;;4.51;100.00
21086;BME280;34247;50.064;19.970;2022-12-07T03:42:08;98750.34;;;4.52;100.00
21086;BME280;34247;50.064;19.970;2022-12-07T03:43:14;98744.25;;;4.52;100.00
21086;BME280;34247;50.064;19.970;2022-12-07T03:44:18;98742.38;;;4.54;100.00
21086;BME280;34247;50.064;19.970;2022-12-07T03:45:36;98745.00;;;4.54;100.00
21086;BME280;34247;50.064;19.970;2022-12-07T03:47:04;98741.44;;;4.55;100.00
21086;BME280;34247;50.064;19.970;2022-12-07T03:48:40;98747.91;;;4.49;100.00
21086;BME280;34247;50.064;19.970;2022-12-07T03:50:24;98739.09;;;4.50;100.00
21086;BME280;34247;50.064;19.970;2022-12-07T03:51:39;98743.09;;;4.40;100.00
21086;BME280;34247;50.064;19.970;2022-12-07T03:53:19;98738.63;;;4.42;100.00
21086;BME280;34247;50.064;19.970;2022-12-07T03:55:40;98736.59;;;4.47;100.00
21086;BME280;34247;50.064;19.970;2022-12-07T03:56:45;98733.13;;;4.47;100.00
21086;BME280;34247;50.064;19.970;2022-12-07T03:57:54;98735.50;;;4.51;100.00
21086;BME280;34247;50.064;19.970;2022-12-07T03:58:59;98732.97;;;4.50;100.00
21086;BME280;34247;50.064;19.970;2022-12-07T04:00:11;98736.38;;;4.52;100.00
21086;BME280;34247;50.064;19.970;2022-12-07T04:01:17;98737.03;;;4.55;100.00
21086;BME280;34247;50.064;19.970;2022-12-07T04:02:23;98733.50;;;4.56;100.00
21086;BME280;34247;50.064;19.970;2022-12-07T04:03:32;98728.25;;;4.56;100.00
21086;BME280;34247;50.064;19.970;2022-12-07T04:04:39;98730.88;;;4.56;100.00
21086;BME280;34247;50.064;19.970;2022-12-07T04:05:44;98731.63;;;4.58;100.00
21086;BME280;34247;50.064;19.970;2022-12-07T04:06:48;98728.91;;;4.60;100.00
21086;BME280;34247;50.064;19.970;2022-12-07T04:07:51;98734.84;;;4.63;100.00
21086;BME280;34247;50.064;19.970;2022-12-07T04:08:57;98734.00;;;4.63;100.00
21086;BME280;34247;50.064;19.970;2022-12-07T04:10:01;98732.47;;;4.59;100.00
21086;BME280;34247;50.064;19.970;2022-12-07T04:11:07;98729.59;;;4.63;100.00
21086;BME280;34247;50.064;19.970;2022-12-07T04:12:11;98727.91;;;4.62;100.00
21086;BME280;34247;50.064;19.970;2022-12-07T04:13:16;98731.16;;;4.67;100.00
21086;BME280;34247;50.064;19.970;2022-12-07T04:14:19;98726.81;;;4.66;100.00
21086;BME280;34247;50.064;19.970;2022-12-07T04:15:23;98734.84;;;4.63;100.00
21086;BME280;34247;50.064;19.970;2022-12-07T04:16:27;98735.56;;;4.67;100.00
21086;BME280;34247;50.064;19.970;2022-12-07T04:17:30;98730.38;;;4.65;100.00
21086;BME280;34247;50.064;19.970;2022-12-07T04:18:34;98729.34;;;4.68;100.00
21086;BME280;34247;50.064;19.970;2022-12-07T04:19:38;98722.41;;;4.67;100.00
21086;BME280;34247;50.064;19.970;2022-12-07T04:20:41;98725.78;;;4.69;100.00
21086;BME280;34247;50.064;19.970;2022-12-07T04:21:45;98736.22;;;4.70;100.00
21086;BME280;34247;50.064;19.970;2022-12-07T04:22:49;98730.97;;;4.70;100.00
21086;BME280;34247;50.064;19.970;2022-12-07T04:23:53;98730.97;;;4.70;100.00
21086;BME280;34247;50.064;19.970;2022-12-07T04:24:56;98725.88;;;4.67;100.00
21086;BME280;34247;50.064;19.970;2022-12-07T04:26:00;98729.22;;;4.71;100.00
21086;BME280;34247;50.064;19.970;2022-12-07T04:27:03;98723.88;;;4.73;100.00
21086;BME280;34247;50.064;19.970;2022-12-07T04:28:07;98727.25;;;4.75;100.00
21086;BME280;34247;50.064;19.970;2022-12-07T04:29:12;98727.25;;;4.75;100.00
21086;BME280;34247;50.064;19.970;2022-12-07T04:30:16;98717.81;;;4.70;100.00
21086;BME280;34247;50.064;19.970;2022-12-07T04:31:19;98728.94;;;4.76;100.00
21086;BME280;34247;50.064;19.970;2022-12-07T04:32:24;98730.66;;;4.77;100.00
21086;BME280;34247;50.064;19.970;2022-12-07T04:33:28;98725.38;;;4.77;100.00
21086;BME280;34247;50.064;19.970;2022-12-07T04:34:31;98726.25;;;4.77;100.00
21086;BME280;34247;50.064;19.970;2022-12-07T04:35:38;98723.53;;;4.79;100.00
21086;BME280;34247;50.064;19.970;2022-12-07T04:36:48;98730.50;;;4.80;100.00
21086;BME280;34247;50.064;19.970;2022-12-07T04:37:54;98730.41;;;4.81;100.00
21086;BME280;34247;50.064;19.970;2022-12-07T04:38:58;98721.75;;;4.79;100.00
21086;BME280;34247;50.064;19.970;2022-12-07T04:40:02;98721.81;;;4.78;100.00
21086;BME280;34247;50.064;19.970;2022-12-07T04:41:09;98721.81;;;4.78;100.00
21086;BME280;34247;50.064;19.970;2022-12-07T04:42:13;98720.84;;;4.80;100.00
21086;BME280;34247;50.064;19.970;2022-12-07T04:43:18;98717.19;;;4.83;100.00
21086;BME280;34247;50.064;19.970;2022-12-07T04:44:24;98719.03;;;4.81;100.00
21086;BME280;34247;50.064;19.970;2022-12-07T04:45:28;98718.19;;;4.80;100.00
21086;BME280;34247;50.064;19.970;2022-12-07T04:46:32;98721.69;;;4.81;100.00
21086;BME280;34247;50.064;19.970;2022-12-07T04:47:36;98721.59;;;4.82;100.00
21086;BME280;34247;50.064;19.970;2022-12-07T04:48:53;98716.34;;;4.82;100.00
21086;BME280;34247;50.064;19.970;2022-12-07T04:50:04;98731.97;;;4.85;100.00
21086;BME280;34247;50.064;19.970;2022-12-07T04:51:08;98721.50;;;4.84;100.00
21086;BME280;34247;50.064;19.970;2022-12-07T04:52:12;98718.88;;;4.84;100.00
21086;BME280;34247;50.064;19.970;2022-12-07T04:53:16;98717.94;;;4.85;100.00
21086;BME280;34247;50.064;19.970;2022-12-07T04:54:20;98723.28;;;4.83;100.00
21086;BME280;34247;50.064;19.970;2022-12-07T04:55:24;98723.13;;;4.86;100.00
21086;BME280;34247;50.064;19.970;2022-12-07T04:56:28;98712.75;;;4.83;100.00
21086;BME280;34247;50.064;19.970;2022-12-07T04:57:32;98722.28;;;4.86;100.00
21086;BME280;34247;50.064;19.970;2022-12-07T04:58:36;98717.44;;;4.78;100.00
21086;BME280;34247;50.064;19.970;2022-12-07T04:59:46;98719.81;;;4.83;100.00
21086;BME280;34247;50.064;19.970;2022-12-07T05:00:53;98724.97;;;4.84;100.00
21086;BME280;34247;50.064;19.970;2022-12-07T05:01:57;98717.94;;;4.85;100.00
21086;BME280;34247;50.064;19.970;2022-12-07T05:03:01;98717.94;;;4.85;100.00
21086;BME280;34247;50.064;19.970;2022-12-07T05:04:06;98715.38;;;4.83;100.00
21086;BME280;34247;50.064;19.970;2022-12-07T05:05:11;98726.69;;;4.85;100.00
21086;BME280;34247;50.064;19.970;2022-12-07T05:06:15;98713.78;;;4.81;100.00
21086;BME280;34247;50.064;19.970;2022-12-07T05:07:19;98716.25;;;4.84;100.00
21086;BME280;34247;50.064;19.970;2022-12-07T05:08:23;98720.41;;;4.88;100.00
21086;BME280;34247;50.064;19.970;2022-12-07T05:09:28;98711.16;;;4.81;100.00
21086;BME280;34247;50.064;19.970;2022-12-07T05:10:34;98718.28;;;4.79;100.00
21086;BME280;34247;50.064;19.970;2022-12-07T05:11:51;98716.84;;;4.73;100.00
21086;BME280;34247;50.064;19.970;2022-12-07T05:12:56;98714.13;;;4.75;100.00
21086;BME280;34247;50.064;19.970;2022-12-07T05:14:02;98712.25;;;4.77;100.00
21086;BME280;34247;50.064;19.970;2022-12-07T05:15:07;98718.28;;;4.79;100.00
21086;BME280;34247;50.064;19.970;2022-12-07T05:16:11;98713.09;;;4.77;100.00
21086;BME280;34247;50.064;19.970;2022-12-07T05:17:16;98713.94;;;4.78;100.00
21086;BME280;34247;50.064;19.970;2022-12-07T05:18:20;98710.56;;;4.76;100.00
21086;BME280;34247;50.064;19.970;2022-12-07T05:19:24;98716.66;;;4.76;100.00
21086;BME280;34247;50.064;19.970;2022-12-07T05:20:27;98713.34;;;4.73;100.00
21086;BME280;34247;50.064;19.970;2022-12-07T05:21:31;98715.91;;;4.74;100.00
21086;BME280;34247;50.064;19.970;2022-12-07T05:22:35;98715.56;;;4.64;100.00
21086;BME280;34247;50.064;19.970;2022-12-07T05:23:39;98714.69;;;4.64;100.00
21086;BME280;34247;50.064;19.970;2022-12-07T05:24:43;98714.19;;;4.57;100.00
21086;BME280;34247;50.064;19.970;2022-12-07T05:25:46;98714.94;;;4.59;100.00
21086;BME280;34247;50.064;19.970;2022-12-07T05:26:52;98715.59;;;4.63;100.00
21086;BME280;34247;50.064;19.970;2022-12-07T05:27:59;98718.22;;;4.63;100.00
21086;BME280;34247;50.064;19.970;2022-12-07T05:29:16;98720.00;;;4.62;100.00
21086;BME280;34247;50.064;19.970;2022-12-07T05:30:20;98716.53;;;4.62;100.00
21086;BME280;34247;50.064;19.970;2022-12-07T05:31:27;98716.31;;;4.66;100.00
21086;BME280;34247;50.064;19.970;2022-12-07T05:32:33;98718.94;;;4.66;100.00
21086;BME280;34247;50.064;19.970;2022-12-07T05:33:37;98722.31;;;4.68;100.00
21086;BME280;34247;50.064;19.970;2022-12-07T05:34:58;98717.91;;;4.69;100.00
21086;BME280;34247;50.064;19.970;2022-12-07T05:36:03;98720.41;;;4.72;100.00
21086;BME280;34247;50.064;19.970;2022-12-07T05:37:16;98721.38;;;4.69;100.00
21086;BME280;34247;50.064;19.970;2022-12-07T05:38:21;98727.44;;;4.72;100.00
21086;BME280;34247;50.064;19.970;2022-12-07T05:39:28;98717.25;;;4.65;100.00
21086;BME280;34247;50.064;19.970;2022-12-07T05:40:32;98723.44;;;4.64;100.00
21086;BME280;34247;50.064;19.970;2022-12-07T05:41:35;98728.50;;;4.67;100.00
21086;BME280;34247;50.064;19.970;2022-12-07T05:42:58;98726.22;;;4.61;100.00
21086;BME280;34247;50.064;19.970;2022-12-07T05:44:10;98728.50;;;4.67;100.00
21086;BME280;34247;50.064;19.970;2022-12-07T05:45:13;98729.44;;;4.66;100.00
21086;BME280;34247;50.064;19.970;2022-12-07T05:46:18;98734.72;;;4.66;100.00
21086;BME280;34247;50.064;19.970;2022-12-07T05:47:26;98729.44;;;4.66;100.00
21086;BME280;34247;50.064;19.970;2022-12-07T05:48:33;98729.59;;;4.63;100.00
21086;BME280;34247;50.064;19.970;2022-12-07T05:49:40;98730.38;;;4.65;100.00
21086;BME280;34247;50.064;19.970;2022-12-07T05:50:46;98729.28;;;4.69;100.00
21086;BME280;34247;50.064;19.970;2022-12-07T05:51:50;98730.13;;;4.70;100.00
21086;BME280;34247;50.064;19.970;2022-12-07T05:52:54;98732.75;;;4.70;100.00
21086;BME280;34247;50.064;19.970;2022-12-07T05:53:57;98735.91;;;4.77;100.00
21086;BME280;34247;50.064;19.970;2022-12-07T05:55:02;98723.47;;;4.80;100.00
21086;BME280;34247;50.064;19.970;2022-12-07T05:56:12;98739.25;;;4.80;100.00
21086;BME280;34247;50.064;19.970;2022-12-07T05:57:16;98730.50;;;4.80;100.00
21086;BME280;34247;50.064;19.970;2022-12-07T05:58:19;98732.09;;;4.82;100.00
21086;BME280;34247;50.064;19.970;2022-12-07T05:59:45;98729.38;;;4.84;100.00
21086;BME280;34247;50.064;19.970;2022-12-07T06:00:48;98738.97;;;4.85;100.00
21086;BME280;34247;50.064;19.970;2022-12-07T06:02:09;98735.50;;;4.84;100.00
21086;BME280;34247;50.064;19.970;2022-12-07T06:03:13;98728.31;;;4.88;100.00
21086;BME280;34247;50.064;19.970;2022-12-07T06:04:17;98738.31;;;4.81;100.00
21086;BME280;34247;50.064;19.970;2022-12-07T06:05:21;98733.97;;;4.80;100.00
21086;BME280;34247;50.064;19.970;2022-12-07T06:06:25;98728.53;;;4.83;100.00
21086;BME280;34247;50.064;19.970;2022-12-07T06:07:28;98734.22;;;4.76;100.00
21086;BME280;34247;50.064;19.970;2022-12-07T06:08:32;98730.13;;;4.70;100.00
21086;BME280;34247;50.064;19.970;2022-12-07T06:09:36;98725.38;;;4.77;100.00
21086;BME280;34247;50.064;19.970;2022-12-07T06:10:40;98730.41;;;4.81;100.00
21086;BME280;34247;50.064;19.970;2022-12-07T06:11:44;98734.59;;;4.85;100.00
21086;BME280;34247;50.064;19.970;2022-12-07T06:13:13;98735.59;;;4.83;100.00
21086;BME280;34247;50.064;19.970;2022-12-07T06:14:16;98733.22;;;4.78;100.00
21086;BME280;34247;50.064;19.970;2022-12-07T06:15:23;98727.25;;;4.75;100.00
21086;BME280;34247;50.064;19.970;2022-12-07T06:16:27;98730.81;;;4.74;100.00
21086;BME280;34247;50.064;19.970;2022-12-07T06:17:31;98736.41;;;4.67;100.00
21086;BME280;34247;50.064;19.970;2022-12-07T06:18:35;98735.78;;;4.62;100.00
21086;BME280;34247;50.064;19.970;2022-12-07T06:19:39;98733.84;;;4.66;100.00
21086;BME280;34247;50.064;19.970;2022-12-07T06:20:43;98734.38;;;4.73;100.00
21086;BME280;34247;50.064;19.970;2022-12-07T06:21:50;98735.63;;;4.65;100.00
21086;BME280;34247;50.064;19.970;2022-12-07T06:22:53;98746.16;;;4.65;100.00
21086;BME280;34247;50.064;19.970;2022-12-07T06:23:57;98732.16;;;4.65;100.00
21086;BME280;34247;50.064;19.970;2022-12-07T06:25:01;98735.63;;;4.65;100.00
21086;BME280;34247;50.064;19.970;2022-12-07T06:26:10;98737.44;;;4.65;100.00
21086;BME280;34247;50.064;19.970;2022-12-07T06:27:14;98735.56;;;4.67;100.00